Flugplatz Anspach/Taunus

Für EDFA sind keine METAR/TAF Berichte vorhanden.
Es werden die Flugwettermeldungen vom Flugplatz Frankfurt am Main International in 28 km Entfernung angezeigt.

Bericht für EDDF

vom 17.09. um 13:20 UTC

Wind 10 kt aus 300°

Sichtweite 10 km oder mehr

gute Sicht, keine Wolken < 5000 ft, keine CB, keine Wettererscheinungen (CAVOK)

Temperatur 19.0°C

Taupunkt 7.0°C

Luftfeuchtigkeit 46%

Luftdruck 1020 hPa

keine wesentliche Wetteränderung innerhalb den nächsten 2 Stunden zu erwarten

EDDF 171320Z 30010KT 250V350 CAVOK 19/07 Q1020 NOSIG

Prognose für EDDF

vom 17.09. um 00:00 UTC

Zwischen 00:00 UTC und 00:00 UTC

Wind 10 kt aus 310°

Sichtweite 10 km oder mehr

aufgelockert bewölkt in 3000 ft


Zwischen 00:00 UTC und 00:00 UTC zeitweise mit einer Wahrscheinlichkeit von 30%

Wind 15 kt aus 320° in Böen 25 kt


Zwischen 00:00 und 00:00 UTC übergehend zu

Wind 5 kt aus 350°

Sichtweite 10 km oder mehr

aufgelockert bewölkt in 3000 ft

TAF EDDF 171100Z 1712/1818 31010KT 9999 SCT030 PROB30 TEMPO 1713/1718 32015G25KT BECMG 1719/1722 35005KT
Impressum